createdAt,value
2018-12-01T00:00:11.176Z,81.41
2018-12-01T00:01:11.169Z,81.00
2018-12-01T00:02:11.155Z,81.30
2018-12-01T00:03:11.171Z,81.20
2018-12-01T00:04:11.131Z,81.82
2018-12-01T00:05:11.123Z,81.10
2018-12-01T00:06:11.107Z,82.13
2018-12-01T00:07:11.101Z,81.71
2018-12-01T00:08:11.117Z,82.03
2018-12-01T00:09:11.080Z,81.71
2018-12-01T00:10:11.064Z,82.13
2018-12-01T00:11:11.056Z,81.71
2018-12-01T00:12:11.044Z,82.06
2018-12-01T00:13:11.062Z,82.23
2018-12-01T00:14:11.020Z,82.17
2018-12-01T00:15:11.013Z,81.86
2018-12-01T00:16:11.001Z,82.27
2018-12-01T00:17:10.985Z,81.96
2018-12-01T00:18:11.008Z,82.17
2018-12-01T00:19:10.962Z,82.47
2018-12-01T00:20:10.951Z,82.06
2018-12-01T00:21:10.941Z,81.55
2018-12-01T00:22:10.938Z,81.86
2018-12-01T00:23:10.954Z,81.86
2018-12-01T00:24:10.920Z,81.86
2018-12-01T00:25:10.896Z,82.06
2018-12-01T00:26:10.886Z,81.55
2018-12-01T00:27:10.874Z,81.86
2018-12-01T00:28:10.891Z,81.65
2018-12-01T00:29:10.855Z,82.17
2018-12-01T00:30:10.840Z,82.06
2018-12-01T00:31:10.831Z,81.76
2018-12-01T00:32:10.819Z,81.76
2018-12-01T00:33:10.834Z,82.17
2018-12-01T00:34:10.799Z,82.17
2018-12-01T00:35:10.791Z,82.47
2018-12-01T00:36:10.780Z,82.10
2018-12-01T00:37:10.762Z,82.62
2018-12-01T00:38:10.786Z,82.00
2018-12-01T00:39:10.741Z,82.20
2018-12-01T00:40:10.730Z,82.10
2018-12-01T00:41:10.721Z,82.62
2018-12-01T00:42:10.710Z,82.62
2018-12-01T00:43:10.704Z,82.82
2018-12-01T00:44:10.717Z,83.23
2018-12-01T00:45:10.674Z,83.37
2018-12-01T00:46:10.662Z,83.99
2018-12-01T00:47:10.653Z,83.58
2018-12-01T00:48:10.643Z,83.37
2018-12-01T00:49:10.657Z,83.78
2018-12-01T00:50:10.621Z,83.78
2018-12-01T00:51:10.607Z,83.58
2018-12-01T00:52:10.608Z,83.58
2018-12-01T00:53:10.589Z,83.68
2018-12-01T00:54:10.610Z,83.58
2018-12-01T00:55:10.567Z,83.37
2018-12-01T00:56:10.550Z,83.58
2018-12-01T00:57:10.539Z,83.58
2018-12-01T00:58:10.533Z,83.48
2018-12-01T00:59:10.547Z,83.27
2018-12-01T01:00:10.516Z,83.37
2018-12-01T01:01:10.494Z,83.41
2018-12-01T01:02:10.483Z,83.51
2018-12-01T01:03:10.481Z,83.37
2018-12-01T01:04:10.493Z,83.37
2018-12-01T01:05:10.487Z,83.41
2018-12-01T01:06:10.447Z,83.68
2018-12-01T01:07:10.431Z,83.78
2018-12-01T01:08:10.428Z,83.48
2018-12-01T01:09:10.436Z,83.51
2018-12-01T01:10:10.397Z,83.37
2018-12-01T01:11:10.385Z,83.17
2018-12-01T01:12:10.373Z,83.51
2018-12-01T01:13:10.363Z,83.62
2018-12-01T01:14:10.380Z,83.62
2018-12-01T01:15:10.339Z,83.51
2018-12-01T01:16:10.330Z,83.51
2018-12-01T01:17:10.318Z,83.51
2018-12-01T01:18:10.305Z,83.72
2018-12-01T01:19:10.328Z,83.62
2018-12-01T01:20:10.284Z,83.51
2018-12-01T01:21:10.274Z,83.41
2018-12-01T01:22:10.261Z,83.62
2018-12-01T01:23:10.251Z,83.83
2018-12-01T01:24:10.270Z,83.72
2018-12-01T01:25:10.260Z,83.65
2018-12-01T01:26:10.215Z,83.97
2018-12-01T01:27:10.208Z,83.92
2018-12-01T01:28:10.195Z,84.48
2018-12-01T01:29:10.209Z,83.97
2018-12-01T01:30:10.203Z,84.44
2018-12-01T01:31:10.165Z,84.48
2018-12-01T01:32:10.156Z,84.69
2018-12-01T01:33:10.139Z,84.69
2018-12-01T01:34:10.157Z,84.69
2018-12-01T01:35:10.122Z,84.79
2018-12-01T01:36:10.104Z,84.69
2018-12-01T01:37:10.100Z,84.79
2018-12-01T01:38:10.085Z,84.17
2018-12-01T01:39:10.102Z,84.69
2018-12-01T01:40:10.065Z,84.69
2018-12-01T01:41:10.053Z,84.75
2018-12-01T01:42:10.039Z,84.79
2018-12-01T01:43:10.034Z,85.10
2018-12-01T01:44:10.046Z,84.58
2018-12-01T01:45:10.011Z,85.10
2018-12-01T01:46:09.993Z,85.71
2018-12-01T01:47:09.983Z,85.71
2018-12-01T01:48:09.974Z,85.41
2018-12-01T01:49:09.989Z,85.30
2018-12-01T01:50:09.953Z,85.44
2018-12-01T01:51:09.958Z,85.34
2018-12-01T01:52:09.932Z,85.24
2018-12-01T01:53:09.915Z,85.30
2018-12-01T01:54:09.944Z,85.30
2018-12-01T01:55:09.925Z,85.34
2018-12-01T01:56:09.903Z,85.44
2018-12-01T01:57:09.874Z,85.34
2018-12-01T01:58:09.860Z,85.24
2018-12-01T01:59:09.879Z,85.30
2018-12-01T02:00:09.837Z,85.44
2018-12-01T02:01:09.827Z,84.83
2018-12-01T02:02:09.848Z,84.93
2018-12-01T02:03:09.803Z,84.93
2018-12-01T02:04:09.795Z,85.34
2018-12-01T02:05:09.818Z,85.44
2018-12-01T02:06:09.774Z,85.55
2018-12-01T02:07:09.762Z,85.41
2018-12-01T02:08:09.760Z,85.44
2018-12-01T02:09:09.744Z,85.55
2018-12-01T02:10:09.758Z,85.34
2018-12-01T02:11:09.714Z,85.34
2018-12-01T02:12:09.716Z,85.24
2018-12-01T02:13:09.697Z,85.34
2018-12-01T02:14:09.685Z,85.44
2018-12-01T02:15:09.711Z,85.34
2018-12-01T02:16:09.663Z,85.44
2018-12-01T02:17:09.650Z,85.34
2018-12-01T02:18:09.640Z,85.44
2018-12-01T02:19:09.627Z,85.34
2018-12-01T02:20:09.647Z,85.55
2018-12-01T02:21:09.607Z,85.34
2018-12-01T02:22:09.601Z,85.24
2018-12-01T02:23:09.583Z,85.34
2018-12-01T02:24:09.571Z,85.34
2018-12-01T02:25:09.589Z,85.44
2018-12-01T02:26:09.551Z,85.17
2018-12-01T02:27:09.578Z,85.69
2018-12-01T02:28:09.529Z,85.79
2018-12-01T02:29:09.518Z,85.14
2018-12-01T02:30:09.535Z,85.38
2018-12-01T02:31:09.495Z,85.79
2018-12-01T02:32:09.486Z,85.69
2018-12-01T02:33:09.477Z,85.89
2018-12-01T02:34:09.461Z,85.59
2018-12-01T02:35:09.483Z,85.59
2018-12-01T02:36:09.440Z,85.69
2018-12-01T02:37:09.428Z,85.69
2018-12-01T02:38:09.417Z,85.69
2018-12-01T02:39:09.405Z,85.89
2018-12-01T02:40:09.421Z,85.17
2018-12-01T02:41:09.386Z,85.69
2018-12-01T02:42:09.374Z,85.69
2018-12-01T02:43:09.359Z,85.79
2018-12-01T02:44:09.348Z,84.97
2018-12-01T02:45:09.371Z,85.07
2018-12-01T02:46:09.326Z,85.07
2018-12-01T02:47:09.372Z,84.97
2018-12-01T02:48:09.309Z,84.97
2018-12-01T02:49:09.294Z,85.49
2018-12-01T02:50:09.351Z,85.55
2018-12-01T02:51:09.277Z,85.17
2018-12-01T02:52:09.263Z,85.59
2018-12-01T02:53:09.252Z,85.28
2018-12-01T02:54:09.239Z,85.38
2018-12-01T02:55:09.231Z,85.38
2018-12-01T02:56:09.248Z,85.38
2018-12-01T02:57:09.207Z,85.49
2018-12-01T02:58:09.195Z,85.17
2018-12-01T02:59:09.187Z,85.07
2018-12-01T03:00:09.175Z,85.28
2018-12-01T03:01:09.193Z,85.17
2018-12-01T03:02:09.176Z,85.28
2018-12-01T03:03:09.139Z,85.79
2018-12-01T03:04:09.128Z,86.00
2018-12-01T03:05:09.124Z,86.15
2018-12-01T03:06:09.138Z,85.79
2018-12-01T03:07:09.094Z,85.89
2018-12-01T03:08:09.084Z,85.28
2018-12-01T03:09:09.105Z,86.10
2018-12-01T03:10:09.068Z,85.79
2018-12-01T03:11:09.081Z,85.69
2018-12-01T03:12:09.048Z,85.69
2018-12-01T03:13:09.032Z,85.83
2018-12-01T03:14:09.022Z,85.69
2018-12-01T03:15:09.007Z,86.00
2018-12-01T03:16:09.029Z,85.63
2018-12-01T03:17:08.986Z,85.73
2018-12-01T03:18:13.508Z,85.79
2018-12-01T03:19:08.966Z,85.73
2018-12-01T03:20:08.952Z,85.63
2018-12-01T03:21:08.971Z,85.89
2018-12-01T03:22:08.929Z,85.73
2018-12-01T03:23:08.952Z,85.73
2018-12-01T03:24:08.908Z,86.04
2018-12-01T03:25:08.893Z,85.73
2018-12-01T03:26:08.923Z,85.79
2018-12-01T03:27:08.879Z,85.22
2018-12-01T03:28:08.861Z,85.07
2018-12-01T03:29:08.852Z,85.42
2018-12-01T03:30:08.842Z,85.07
2018-12-01T03:31:08.886Z,85.22
2018-12-01T03:32:08.823Z,85.22
2018-12-01T03:33:08.811Z,85.79
2018-12-01T03:34:08.797Z,85.11
2018-12-01T03:35:08.789Z,85.22
2018-12-01T03:36:08.800Z,85.31
2018-12-01T03:37:08.766Z,85.01
2018-12-01T03:38:08.750Z,85.22
2018-12-01T03:39:08.741Z,85.31
2018-12-01T03:40:08.729Z,85.83
2018-12-01T03:41:08.722Z,85.22
2018-12-01T03:42:09.094Z,85.42
2018-12-01T03:43:08.703Z,85.83
2018-12-01T03:44:08.725Z,85.83
2018-12-01T03:45:08.685Z,85.83
2018-12-01T03:46:08.696Z,86.04
2018-12-01T03:47:08.679Z,84.91
2018-12-01T03:48:08.642Z,85.22
2018-12-01T03:49:08.632Z,85.01
2018-12-01T03:50:08.631Z,85.31
2018-12-01T03:51:08.610Z,85.31
2018-12-01T03:52:08.649Z,85.83
2018-12-01T03:53:08.587Z,86.15
2018-12-01T03:54:08.594Z,85.31
2018-12-01T03:55:08.566Z,85.31
2018-12-01T03:56:08.552Z,85.83
2018-12-01T03:57:08.575Z,85.97
2018-12-01T03:58:08.529Z,85.77
2018-12-01T03:59:08.518Z,86.04
2018-12-01T04:00:08.506Z,85.87
2018-12-01T04:01:08.498Z,86.04
2018-12-01T04:02:08.518Z,85.77
2018-12-01T04:03:08.474Z,85.77
2018-12-01T04:04:08.484Z,86.18
2018-12-01T04:05:08.457Z,85.94
2018-12-01T04:06:08.440Z,85.77
2018-12-01T04:07:08.461Z,86.49
2018-12-01T04:08:08.425Z,86.29
2018-12-01T04:09:08.407Z,86.60
2018-12-01T04:10:08.418Z,86.39
2018-12-01T04:11:08.386Z,86.39
2018-12-01T04:12:08.408Z,86.49
2018-12-01T04:13:08.365Z,86.39
2018-12-01T04:14:08.360Z,86.49
2018-12-01T04:15:08.343Z,86.39
2018-12-01T04:16:08.332Z,86.80
2018-12-01T04:17:08.349Z,86.90
2018-12-01T04:18:08.340Z,86.90
2018-12-01T04:19:08.299Z,87.01
2018-12-01T04:20:08.289Z,86.70
2018-12-01T04:21:08.280Z,87.32
2018-12-01T04:22:08.294Z,87.01
2018-12-01T04:23:08.255Z,86.70
2018-12-01T04:24:08.241Z,86.70
2018-12-01T04:25:08.252Z,86.70
2018-12-01T04:26:08.219Z,87.01
2018-12-01T04:27:08.243Z,86.80
2018-12-01T04:28:08.203Z,86.80
2018-12-01T04:29:08.189Z,87.11
2018-12-01T04:30:08.181Z,86.90
2018-12-01T04:31:08.166Z,86.80
2018-12-01T04:32:08.185Z,86.90
2018-12-01T04:33:08.145Z,87.01
2018-12-01T04:34:08.131Z,87.21
2018-12-01T04:35:08.121Z,87.01
2018-12-01T04:36:08.111Z,86.94
2018-12-01T04:37:08.128Z,86.70
2018-12-01T04:38:08.138Z,86.60
2018-12-01T04:39:08.079Z,86.32
2018-12-01T04:40:08.072Z,86.60
2018-12-01T04:41:08.053Z,86.80
2018-12-01T04:42:08.072Z,87.15
2018-12-01T04:43:08.036Z,86.49
2018-12-01T04:44:08.023Z,86.43
2018-12-01T04:45:08.006Z,86.49
2018-12-01T04:46:07.997Z,86.39
2018-12-01T04:47:08.020Z,86.60
2018-12-01T04:48:07.978Z,86.60
2018-12-01T04:49:07.997Z,86.49
2018-12-01T04:50:07.959Z,86.70
2018-12-01T04:51:07.944Z,86.43
2018-12-01T04:52:07.958Z,86.49
2018-12-01T04:53:07.933Z,86.39
2018-12-01T04:54:07.927Z,86.63
2018-12-01T04:55:07.899Z,86.70
2018-12-01T04:56:07.883Z,86.22
2018-12-01T04:57:07.905Z,86.39
2018-12-01T04:58:07.860Z,85.97
2018-12-01T04:59:07.849Z,86.49
2018-12-01T05:00:07.838Z,86.49
2018-12-01T05:01:07.826Z,86.29
2018-12-01T05:02:07.880Z,86.53
2018-12-01T05:03:07.808Z,86.43
2018-12-01T05:04:07.793Z,86.70
2018-12-01T05:05:07.786Z,86.84
2018-12-01T05:06:07.770Z,87.21
2018-12-01T05:07:07.789Z,86.90
2018-12-01T05:08:07.753Z,86.80
2018-12-01T05:09:07.735Z,86.60
2018-12-01T05:10:07.725Z,86.90
2018-12-01T05:11:07.714Z,87.11
2018-12-01T05:12:07.729Z,86.90
2018-12-01T05:13:07.692Z,86.80
2018-12-01T05:14:07.717Z,86.80
2018-12-01T05:15:07.667Z,86.90
2018-12-01T05:16:07.662Z,87.01
2018-12-01T05:17:07.674Z,86.60
2018-12-01T05:18:07.638Z,86.90
2018-12-01T05:19:07.630Z,87.77
2018-12-01T05:20:07.610Z,87.52
2018-12-01T05:21:07.627Z,87.83
2018-12-01T05:22:07.620Z,87.32
2018-12-01T05:23:07.584Z,87.83
2018-12-01T05:24:07.566Z,87.32
2018-12-01T05:25:07.564Z,87.52
2018-12-01T05:26:07.544Z,87.32
2018-12-01T05:27:07.565Z,87.21
2018-12-01T05:28:07.519Z,87.83
2018-12-01T05:29:07.511Z,87.63
2018-12-01T05:30:07.500Z,87.93
2018-12-01T05:31:07.486Z,87.83
2018-12-01T05:32:07.486Z,88.04
2018-12-01T05:33:07.498Z,88.08
2018-12-01T05:34:07.486Z,88.35
2018-12-01T05:35:07.453Z,88.35
2018-12-01T05:36:07.431Z,88.08
2018-12-01T05:37:07.479Z,87.93
2018-12-01T05:38:07.409Z,87.77
2018-12-01T05:39:07.398Z,87.98
2018-12-01T05:40:07.390Z,87.73
2018-12-01T05:41:07.374Z,88.14
2018-12-01T05:42:07.366Z,87.66
2018-12-01T05:43:07.379Z,87.77
2018-12-01T05:44:07.342Z,87.98
2018-12-01T05:45:07.349Z,87.87
2018-12-01T05:46:07.323Z,87.77
2018-12-01T05:47:07.309Z,87.77
2018-12-01T05:48:07.326Z,88.08
2018-12-01T05:49:07.287Z,88.29
2018-12-01T05:50:07.272Z,88.04
2018-12-01T05:51:07.258Z,87.87
2018-12-01T05:52:07.250Z,87.77
2018-12-01T05:53:07.291Z,87.77
2018-12-01T05:54:07.232Z,87.77
2018-12-01T05:55:07.214Z,87.77
2018-12-01T05:56:07.203Z,88.18
2018-12-01T05:57:07.219Z,88.18
2018-12-01T05:58:07.209Z,88.39
2018-12-01T05:59:07.173Z,87.77
2018-12-01T06:00:07.166Z,88.29
2018-12-01T06:01:07.147Z,87.87
2018-12-01T06:02:07.142Z,87.56
2018-12-01T06:03:07.157Z,87.46
2018-12-01T06:04:07.116Z,87.35
2018-12-01T06:05:07.101Z,87.26
2018-12-01T06:06:07.098Z,87.66
2018-12-01T06:07:07.086Z,88.08
2018-12-01T06:08:07.138Z,88.18
2018-12-01T06:09:07.061Z,87.77
2018-12-01T06:10:07.047Z,87.98
2018-12-01T06:11:07.074Z,88.29
2018-12-01T06:12:07.032Z,87.26
2018-12-01T06:13:07.044Z,87.87
2018-12-01T06:14:07.005Z,87.77
2018-12-01T06:15:06.989Z,87.66
2018-12-01T06:16:06.979Z,88.12
2018-12-01T06:17:06.975Z,87.87
2018-12-01T06:18:07.017Z,88.22
2018-12-01T06:19:06.946Z,88.12
2018-12-01T06:20:06.935Z,88.08
2018-12-01T06:21:06.957Z,87.98
2018-12-01T06:22:06.913Z,87.98
2018-12-01T06:23:06.928Z,87.98
2018-12-01T06:24:06.919Z,87.98
2018-12-01T06:25:06.880Z,87.98
2018-12-01T06:26:06.874Z,87.98
2018-12-01T06:27:06.863Z,87.77
2018-12-01T06:28:06.879Z,88.22
2018-12-01T06:29:06.838Z,88.08
2018-12-01T06:30:06.822Z,88.29
2018-12-01T06:31:06.813Z,88.22
2018-12-01T06:32:06.800Z,87.71
2018-12-01T06:33:06.843Z,87.98
2018-12-01T06:34:06.788Z,88.08
2018-12-01T06:35:06.774Z,88.39
2018-12-01T06:36:06.759Z,87.98
2018-12-01T06:37:06.744Z,87.92
2018-12-01T06:38:06.768Z,88.29
2018-12-01T06:39:06.722Z,88.08
2018-12-01T06:40:06.711Z,87.98
2018-12-01T06:41:06.704Z,88.18
2018-12-01T06:42:06.694Z,87.98
2018-12-01T06:43:06.707Z,87.98
2018-12-01T06:44:06.668Z,87.98
2018-12-01T06:45:06.656Z,87.77
2018-12-01T06:46:06.646Z,88.08
2018-12-01T06:47:06.636Z,88.08
2018-12-01T06:48:06.671Z,88.18
2018-12-01T06:49:06.617Z,87.77
2018-12-01T06:50:06.602Z,87.98
2018-12-01T06:51:06.594Z,87.66
2018-12-01T06:52:06.582Z,87.98
2018-12-01T06:53:06.604Z,88.59
2018-12-01T06:54:06.559Z,88.59
2018-12-01T06:55:06.545Z,88.49
2018-12-01T06:56:06.535Z,88.59
2018-12-01T06:57:06.526Z,87.98
2018-12-01T06:58:06.575Z,88.39
2018-12-01T06:59:06.508Z,88.08
2018-12-01T07:00:06.497Z,88.29
2018-12-01T07:01:06.479Z,88.08
2018-12-01T07:02:06.472Z,87.87
2018-12-01T07:03:06.487Z,87.77
2018-12-01T07:04:06.476Z,88.08
2018-12-01T07:05:06.441Z,88.39
2018-12-01T07:06:06.424Z,88.08
2018-12-01T07:07:06.415Z,88.29
2018-12-01T07:08:06.432Z,88.18
2018-12-01T07:09:06.394Z,88.08
2018-12-01T07:10:06.385Z,88.08
2018-12-01T07:11:06.398Z,88.08
2018-12-01T07:12:06.367Z,88.08
2018-12-01T07:13:06.380Z,88.39
2018-12-01T07:14:06.333Z,88.39
2018-12-01T07:15:06.326Z,88.08
2018-12-01T07:16:06.309Z,88.29
2018-12-01T07:17:06.302Z,88.59
2018-12-01T07:18:06.296Z,88.29
2018-12-01T07:19:06.328Z,88.18
2018-12-01T07:20:06.270Z,88.59
2018-12-01T07:21:06.259Z,88.39
2018-12-01T07:22:06.248Z,88.08
2018-12-01T07:23:06.266Z,88.08
2018-12-01T07:24:06.249Z,88.39
2018-12-01T07:25:06.211Z,88.04
2018-12-01T07:26:06.203Z,88.18
2018-12-01T07:27:06.186Z,88.45
2018-12-01T07:28:06.179Z,88.70
2018-12-01T07:29:06.196Z,88.45
2018-12-01T07:30:06.153Z,88.56
2018-12-01T07:31:06.146Z,88.18
2018-12-01T07:32:06.161Z,88.14
2018-12-01T07:33:06.120Z,88.14
2018-12-01T07:34:06.137Z,88.45
2018-12-01T07:35:06.098Z,88.24
2018-12-01T07:36:06.091Z,88.35
2018-12-01T07:37:06.075Z,88.14
2018-12-01T07:38:06.062Z,88.35
2018-12-01T07:39:06.085Z,88.04
2018-12-01T07:40:06.044Z,88.14
2018-12-01T07:41:06.032Z,88.45
2018-12-01T07:42:06.017Z,88.14
2018-12-01T07:43:06.008Z,88.24
2018-12-01T07:44:06.058Z,88.24
2018-12-01T07:45:05.989Z,88.14
2018-12-01T07:46:05.975Z,88.45
2018-12-01T07:47:05.967Z,88.24
2018-12-01T07:48:05.956Z,88.24
2018-12-01T07:49:05.977Z,88.24
2018-12-01T07:50:05.931Z,88.65
2018-12-01T07:51:05.955Z,88.35
2018-12-01T07:52:05.911Z,87.93
2018-12-01T07:53:05.904Z,87.93
2018-12-01T07:54:05.925Z,87.90
2018-12-01T07:55:05.878Z,87.93
2018-12-01T07:56:05.872Z,87.73
2018-12-01T07:57:05.855Z,87.63
2018-12-01T07:58:05.843Z,87.90
2018-12-01T07:59:05.899Z,87.90
2018-12-01T08:00:05.823Z,87.27
2018-12-01T08:01:05.811Z,87.69
2018-12-01T08:02:05.799Z,87.27
2018-12-01T08:03:05.791Z,87.59
2018-12-01T08:04:05.809Z,87.07
2018-12-01T08:05:05.765Z,87.27
2018-12-01T08:06:05.755Z,87.38
2018-12-01T08:07:05.744Z,87.54
2018-12-01T08:08:05.734Z,87.75
2018-12-01T08:09:05.753Z,87.69
2018-12-01T08:10:05.731Z,87.96
2018-12-01T08:11:05.703Z,87.75
2018-12-01T08:12:05.688Z,87.34
2018-12-01T08:13:05.682Z,86.93
2018-12-01T08:14:05.697Z,86.72
2018-12-01T08:15:05.656Z,86.93
2018-12-01T08:16:05.643Z,86.31
2018-12-01T08:17:05.632Z,86.21
2018-12-01T08:18:05.631Z,86.27
2018-12-01T08:19:05.642Z,86.27
2018-12-01T08:20:05.619Z,86.21
2018-12-01T08:21:05.587Z,86.27
2018-12-01T08:22:05.582Z,86.58
2018-12-01T08:23:05.571Z,86.58
2018-12-01T08:24:05.587Z,86.16
2018-12-01T08:25:05.543Z,86.16
2018-12-01T08:26:05.535Z,86.06
2018-12-01T08:27:05.524Z,85.96
2018-12-01T08:28:05.512Z,86.16
2018-12-01T08:29:05.526Z,85.86
2018-12-01T08:30:05.487Z,85.86
2018-12-01T08:31:05.487Z,85.86
2018-12-01T08:32:05.466Z,85.75
2018-12-01T08:33:05.455Z,85.55
2018-12-01T08:34:05.471Z,86.06
2018-12-01T08:35:05.431Z,85.96
2018-12-01T08:36:05.421Z,86.27
2018-12-01T08:37:05.417Z,86.06
2018-12-01T08:38:05.399Z,86.16
2018-12-01T08:39:05.416Z,85.75
2018-12-01T08:40:05.377Z,86.16
2018-12-01T08:41:05.366Z,86.06
2018-12-01T08:42:05.353Z,85.65
2018-12-01T08:43:05.344Z,86.06
2018-12-01T08:44:05.362Z,85.86
2018-12-01T08:45:05.321Z,86.54
2018-12-01T08:46:05.336Z,85.96
2018-12-01T08:47:05.302Z,86.47
2018-12-01T08:48:05.290Z,85.92
2018-12-01T08:49:05.309Z,86.43
2018-12-01T08:50:05.281Z,85.82
2018-12-01T08:51:05.266Z,85.75
2018-12-01T08:52:05.247Z,85.71
2018-12-01T08:53:05.233Z,85.92
2018-12-01T08:54:05.254Z,85.71
2018-12-01T08:55:05.212Z,85.61
2018-12-01T08:56:05.199Z,85.68
2018-12-01T08:57:05.189Z,85.68
2018-12-01T08:58:05.175Z,85.36
2018-12-01T08:59:05.196Z,85.47
2018-12-01T09:00:05.154Z,85.26
2018-12-01T09:01:05.143Z,84.95
2018-12-01T09:02:05.133Z,84.95
2018-12-01T09:03:05.119Z,85.26
2018-12-01T09:04:05.113Z,85.36
2018-12-01T09:05:05.125Z,85.33
2018-12-01T09:06:05.086Z,85.33
2018-12-01T09:07:05.076Z,84.85
2018-12-01T09:08:05.068Z,84.50
2018-12-01T09:09:05.083Z,84.20
2018-12-01T09:10:05.053Z,84.30
2018-12-01T09:11:05.031Z,84.40
2018-12-01T09:12:05.020Z,83.89
2018-12-01T09:13:05.011Z,84.09
2018-12-01T09:14:05.003Z,83.48
2018-12-01T09:15:05.024Z,83.99
2018-12-01T09:16:04.978Z,83.48
2018-12-01T09:17:04.967Z,83.99
2018-12-01T09:18:04.953Z,83.37
2018-12-01T09:19:04.944Z,83.27
2018-12-01T09:20:04.966Z,83.44
2018-12-01T09:21:04.920Z,83.44
2018-12-01T09:22:04.913Z,83.54
2018-12-01T09:23:04.905Z,83.44
2018-12-01T09:24:04.889Z,83.48
2018-12-01T09:25:04.903Z,83.23
2018-12-01T09:26:04.897Z,83.54
2018-12-01T09:27:04.852Z,83.54
2018-12-01T09:28:04.843Z,83.13
2018-12-01T09:29:04.834Z,83.54
2018-12-01T09:30:04.848Z,84.16
2018-12-01T09:31:04.808Z,83.95
2018-12-01T09:32:04.797Z,83.95
2018-12-01T09:33:04.792Z,83.54
2018-12-01T09:34:04.775Z,83.33
2018-12-01T09:35:04.798Z,84.36
2018-12-01T09:36:04.752Z,83.75
2018-12-01T09:37:04.741Z,84.26
2018-12-01T09:38:04.737Z,84.47
2018-12-01T09:39:04.718Z,84.16
2018-12-01T09:40:04.739Z,84.05
2018-12-01T09:41:04.704Z,84.77
2018-12-01T09:42:04.687Z,84.36
2018-12-01T09:43:04.678Z,83.81
2018-12-01T09:44:04.668Z,84.16
2018-12-01T09:45:04.688Z,84.36
2018-12-01T09:46:04.663Z,84.32
2018-12-01T09:47:04.646Z,83.91
2018-12-01T09:48:04.626Z,84.01
2018-12-01T09:49:04.626Z,83.70
2018-12-01T09:50:04.627Z,83.19
2018-12-01T09:51:04.591Z,83.40
2018-12-01T09:52:04.575Z,83.50
2018-12-01T09:53:04.566Z,82.78
2018-12-01T09:54:04.561Z,82.68
2018-12-01T09:55:04.568Z,83.46
2018-12-01T09:56:04.530Z,83.09
2018-12-01T09:57:04.518Z,82.84
2018-12-01T09:58:04.509Z,83.77
2018-12-01T09:59:04.497Z,82.33
2018-12-01T10:00:04.526Z,82.33
2018-12-01T10:01:04.477Z,82.23
2018-12-01T10:02:04.464Z,82.23
2018-12-01T10:03:04.475Z,81.62
2018-12-01T10:04:04.443Z,81.82
2018-12-01T10:05:04.467Z,82.33
2018-12-01T10:06:04.417Z,82.43
2018-12-01T10:07:04.415Z,82.50
2018-12-01T10:08:04.398Z,81.78
2018-12-01T10:09:04.392Z,81.78
2018-12-01T10:10:04.414Z,81.88
2018-12-01T10:11:04.363Z,81.99
2018-12-01T10:12:04.351Z,82.50
2018-12-01T10:13:04.340Z,81.99
2018-12-01T10:14:04.334Z,81.16
2018-12-01T10:15:04.353Z,81.16
2018-12-01T10:16:04.307Z,81.13
2018-12-01T10:17:04.295Z,80.76
2018-12-01T10:18:04.284Z,80.92
2018-12-01T10:19:04.274Z,80.72
2018-12-01T10:20:04.299Z,80.82
2018-12-01T10:21:04.253Z,81.34
2018-12-01T10:22:04.239Z,80.58
2018-12-01T10:23:04.228Z,80.27
2018-12-01T10:24:04.218Z,80.37
2018-12-01T10:25:04.234Z,80.37
2018-12-01T10:26:04.203Z,80.37
2018-12-01T10:27:04.186Z,79.86
2018-12-01T10:28:04.173Z,79.55
2018-12-01T10:29:04.163Z,79.45
2018-12-01T10:30:04.179Z,79.11
2018-12-01T10:31:04.138Z,78.59
2018-12-01T10:32:04.133Z,77.87
2018-12-01T10:33:04.119Z,77.33
2018-12-01T10:34:04.109Z,76.61
2018-12-01T10:35:04.125Z,75.69
2018-12-01T10:36:04.087Z,75.38
2018-12-01T10:37:04.073Z,74.94
2018-12-01T10:38:04.070Z,74.02
2018-12-01T10:39:04.059Z,73.50
2018-12-01T10:40:04.068Z,73.30
2018-12-01T10:41:04.027Z,72.86
2018-12-01T10:42:04.017Z,72.89
2018-12-01T10:43:04.015Z,72.86
2018-12-01T10:44:03.994Z,72.96
2018-12-01T10:45:04.019Z,72.78
2018-12-01T10:46:03.974Z,72.99
2018-12-01T10:47:03.960Z,72.58
2018-12-01T10:48:03.963Z,73.06
2018-12-01T10:49:03.940Z,71.53
2018-12-01T10:50:03.955Z,71.45
2018-12-01T10:51:03.920Z,71.73
2018-12-01T10:52:03.904Z,71.42
2018-12-01T10:53:03.893Z,71.86
2018-12-01T10:54:03.881Z,71.04
2018-12-01T10:55:03.899Z,71.36
2018-12-01T10:56:03.864Z,71.66
2018-12-01T10:57:03.847Z,70.84
2018-12-01T10:58:03.837Z,70.61
2018-12-01T10:59:03.827Z,70.94
2018-12-01T11:00:03.843Z,71.15
2018-12-01T11:01:03.803Z,70.71
2018-12-01T11:02:03.800Z,70.81
2018-12-01T11:03:03.782Z,71.01
2018-12-01T11:04:03.771Z,71.12
2018-12-01T11:05:03.760Z,71.22
2018-12-01T11:06:03.778Z,71.01
2018-12-01T11:07:03.737Z,71.22
2018-12-01T11:08:03.731Z,70.50
2018-12-01T11:09:03.714Z,70.91
2018-12-01T11:10:03.732Z,71.83
2018-12-01T11:11:03.691Z,73.06
2018-12-01T11:12:03.681Z,71.32
2018-12-01T11:13:03.669Z,71.83
2018-12-01T11:14:03.660Z,72.21
2018-12-01T11:15:03.648Z,71.32
2018-12-01T11:16:03.665Z,71.01
2018-12-01T11:17:03.624Z,71.32
2018-12-01T11:18:03.613Z,71.01
2018-12-01T11:19:03.603Z,71.94
2018-12-01T11:20:03.595Z,71.62
2018-12-01T11:21:03.616Z,70.91
2018-12-01T11:22:03.568Z,70.40
2018-12-01T11:23:03.560Z,70.50
2018-12-01T11:24:03.547Z,70.40
2018-12-01T11:25:03.538Z,70.40
2018-12-01T11:26:03.550Z,70.81
2018-12-01T11:27:03.517Z,70.40
2018-12-01T11:28:03.501Z,70.61
2018-12-01T11:29:03.492Z,70.91
2018-12-01T11:30:03.481Z,70.40
2018-12-01T11:31:03.500Z,69.99
2018-12-01T11:32:03.458Z,69.79
2018-12-01T11:33:03.449Z,69.58
2018-12-01T11:34:03.435Z,70.20
2018-12-01T11:35:03.423Z,70.61
2018-12-01T11:36:03.440Z,70.50
2018-12-01T11:37:03.401Z,70.81
2018-12-01T11:38:03.389Z,70.61
2018-12-01T11:39:03.380Z,70.50
2018-12-01T11:40:03.373Z,70.81
2018-12-01T11:41:03.387Z,70.40
2018-12-01T11:42:03.344Z,70.61
2018-12-01T11:43:03.333Z,69.79
2018-12-01T11:44:03.323Z,69.96
2018-12-01T11:45:03.313Z,69.75
2018-12-01T11:46:03.331Z,70.06
2018-12-01T11:47:03.290Z,69.85
2018-12-01T11:48:03.283Z,69.04
2018-12-01T11:49:03.268Z,69.65
2018-12-01T11:50:03.256Z,69.65
2018-12-01T11:51:03.272Z,68.93
2018-12-01T11:52:03.234Z,69.55
2018-12-01T11:53:03.221Z,70.16
2018-12-01T11:54:03.213Z,69.96
2018-12-01T11:55:03.205Z,69.45
2018-12-01T11:56:03.220Z,69.55
2018-12-01T11:57:03.177Z,70.40
2018-12-01T11:58:03.166Z,70.16
2018-12-01T11:59:03.155Z,69.85
2018-12-01T12:00:03.143Z,69.45
2018-12-01T12:01:03.166Z,68.52
2018-12-01T12:02:03.125Z,68.12
2018-12-01T12:03:03.119Z,69.45
2018-12-01T12:04:03.101Z,68.52
2018-12-01T12:05:03.088Z,69.04
2018-12-01T12:06:03.110Z,68.52
2018-12-01T12:07:03.065Z,68.63
2018-12-01T12:08:03.056Z,67.81
2018-12-01T12:09:03.049Z,68.84
2018-12-01T12:10:03.032Z,69.04
2018-12-01T12:11:03.050Z,68.42
2018-12-01T12:12:03.010Z,67.19
2018-12-01T12:13:03.000Z,66.28
2018-12-01T12:14:02.986Z,67.27
2018-12-01T12:15:02.984Z,67.57
2018-12-01T12:16:02.994Z,66.55
2018-12-01T12:17:02.953Z,66.11
2018-12-01T12:18:02.943Z,65.60
2018-12-01T12:19:02.931Z,65.91
2018-12-01T12:20:02.919Z,63.86
2018-12-01T12:21:02.943Z,65.19
2018-12-01T12:22:02.900Z,67.95
2018-12-01T12:23:02.886Z,69.65
2018-12-01T12:24:02.875Z,70.51
2018-12-01T12:25:02.867Z,70.40
2018-12-01T12:26:02.882Z,70.51
2018-12-01T12:27:02.851Z,70.81
2018-12-01T12:28:02.831Z,71.22
2018-12-01T12:29:02.823Z,71.53
2018-12-01T12:30:02.808Z,71.42
2018-12-01T12:31:02.827Z,71.83
2018-12-01T12:32:02.787Z,70.10
2018-12-01T12:33:02.775Z,70.30
2018-12-01T12:34:02.765Z,68.77
2018-12-01T12:35:02.799Z,66.01
2018-12-01T12:36:02.795Z,64.78
2018-12-01T12:37:02.734Z,65.09
2018-12-01T12:38:02.721Z,63.76
2018-12-01T12:39:02.720Z,64.07
2018-12-01T12:40:02.698Z,63.96
2018-12-01T12:41:02.714Z,63.86
2018-12-01T12:42:02.678Z,63.35
2018-12-01T12:43:02.663Z,64.07
2018-12-01T12:44:02.651Z,64.07
2018-12-01T12:45:02.640Z,64.27
2018-12-01T12:46:02.658Z,64.37
2018-12-01T12:47:02.621Z,63.79
2018-12-01T12:48:02.609Z,63.39
2018-12-01T12:49:02.603Z,63.28
2018-12-01T12:50:02.584Z,63.04
2018-12-01T12:51:02.576Z,62.63
2018-12-01T12:52:02.594Z,63.69